Time;durP1;ratioP1;P1;durP2;ratioP2;P2;SDS_P1;SDS_P2;PMS_P1;PMS_P2;Temp;Humidity;BMP_temperature;BMP_pressure;BME280_temperature;BME280_humidity;BME280_pressure;Samples;Min_cycle;Max_cycle;Signal;HPM_P1;HPM_P2
2023/05/26 00:01:52;;;;;;;8.40;5.30;;;;;;;;;;5052488;28;20027;-67
2023/05/26 00:04:19;;;;;;;8.70;5.32;;;;;;;;;;5052418;28;20660;-68
2023/05/26 00:06:46;;;;;;;8.07;5.63;;;;;;;;;;5052346;28;20021;-67
2023/05/26 00:09:15;;;;;;;6.50;5.57;;;;;;;;;;5052563;28;20031;-67
2023/05/26 00:11:41;;;;;;;6.75;5.35;;;;;;;;;;5052419;28;20028;-67
2023/05/26 00:14:10;;;;;;;6.50;5.22;;;;;;;;;;5052405;28;20023;-67
2023/05/26 00:16:36;;;;;;;6.90;5.93;;;;;;;;;;5052153;28;20515;-67
2023/05/26 00:19:05;;;;;;;7.05;5.68;;;;;;;;;;5052218;28;20033;-68
2023/05/26 00:21:32;;;;;;;8.85;5.47;;;;;;;;;;5052236;28;20546;-67
2023/05/26 00:23:58;;;;;;;8.05;5.70;;;;;;;;;;5051959;28;20518;-68
2023/05/26 00:26:25;;;;;;;6.63;5.53;;;;;;;;;;5052205;28;20028;-67
2023/05/26 00:28:52;;;;;;;8.25;5.78;;;;;;;;;;5051186;28;20021;-67
2023/05/26 00:31:18;;;;;;;7.30;5.70;;;;;;;;;;5052108;28;20037;-67
2023/05/26 00:33:44;;;;;;;6.80;5.93;;;;;;;;;;5052007;28;20018;-67
2023/05/26 00:36:11;;;;;;;7.97;5.80;;;;;;;;;;5052146;28;20081;-67
2023/05/26 00:38:37;;;;;;;7.07;5.60;;;;;;;;;;5052337;28;20093;-67
2023/05/26 00:41:03;;;;;;;7.13;5.60;;;;;;;;;;5051988;28;20017;-68
2023/05/26 00:43:30;;;;;;;6.03;5.20;;;;;;;;;;5052004;28;20033;-67
2023/05/26 00:45:56;;;;;;;6.78;5.78;;;;;;;;;;5051972;28;20082;-67
2023/05/26 00:48:22;;;;;;;11.10;5.88;;;;;;;;;;5051973;28;20024;-67
2023/05/26 00:50:49;;;;;;;9.75;5.78;;;;;;;;;;5051848;28;20086;-68
2023/05/26 00:53:17;;;;;;;7.93;5.32;;;;;;;;;;5052321;28;20023;-67
2023/05/26 00:55:44;;;;;;;7.88;5.82;;;;;;;;;;5052038;28;20031;-67
2023/05/26 00:58:11;;;;;;;8.00;6.30;;;;;;;;;;5051355;28;20095;-67
2023/05/26 01:00:37;;;;;;;17.35;6.15;;;;;;;;;;5052046;28;20025;-67
2023/05/26 01:03:05;;;;;;;8.20;6.05;;;;;;;;;;5051727;28;20033;-67
2023/05/26 01:05:32;;;;;;;7.55;5.45;;;;;;;;;;5051930;28;20025;-67
2023/05/26 01:07:58;;;;;;;8.32;5.70;;;;;;;;;;5050564;28;20017;-68
2023/05/26 01:10:27;;;;;;;6.35;5.32;;;;;;;;;;5050452;28;20029;-68
2023/05/26 01:13:06;;;;;;;8.80;5.07;;;;;;;;;;5051272;28;20031;-67
2023/05/26 01:15:37;;;;;;;7.53;5.63;;;;;;;;;;5051640;28;20033;-67
2023/05/26 01:18:04;;;;;;;7.50;5.30;;;;;;;;;;5051489;28;20037;-67
2023/05/26 01:20:38;;;;;;;8.75;5.18;;;;;;;;;;5050333;28;20490;-67
2023/05/26 01:23:07;;;;;;;6.80;4.90;;;;;;;;;;5051268;28;20052;-67
2023/05/26 01:25:44;;;;;;;7.38;5.30;;;;;;;;;;5051238;28;20037;-68
2023/05/26 01:28:17;;;;;;;7.03;5.43;;;;;;;;;;5051590;28;20021;-68
2023/05/26 01:30:43;;;;;;;7.57;5.45;;;;;;;;;;5051910;28;20040;-67
2023/05/26 01:33:10;;;;;;;5.85;5.25;;;;;;;;;;5051267;28;20512;-68
2023/05/26 01:35:36;;;;;;;12.27;5.30;;;;;;;;;;5050387;28;20029;-68
2023/05/26 01:38:04;;;;;;;6.05;4.85;;;;;;;;;;5051208;28;20037;-67
2023/05/26 01:40:30;;;;;;;7.55;5.25;;;;;;;;;;5055089;28;20023;-67
2023/05/26 01:43:02;;;;;;;7.88;5.60;;;;;;;;;;5054133;28;20039;-67
2023/05/26 01:45:35;;;;;;;9.73;6.10;;;;;;;;;;5055070;28;20066;-68
2023/05/26 01:48:02;;;;;;;8.07;5.10;;;;;;;;;;5054970;28;20070;-67
2023/05/26 01:50:42;;;;;;;7.35;5.70;;;;;;;;;;5054960;28;20025;-67
2023/05/26 01:53:12;;;;;;;7.60;5.65;;;;;;;;;;5055027;28;20037;-67
2023/05/26 01:55:38;;;;;;;9.57;5.30;;;;;;;;;;5054434;28;20024;-67
2023/05/26 01:58:06;;;;;;;9.30;5.90;;;;;;;;;;5054670;28;20031;-67
2023/05/26 02:00:32;;;;;;;7.28;5.97;;;;;;;;;;5054979;28;20591;-67
2023/05/26 02:02:58;;;;;;;7.03;5.38;;;;;;;;;;5054749;28;20028;-67
2023/05/26 02:05:25;;;;;;;6.93;5.60;;;;;;;;;;5054848;28;20037;-68
2023/05/26 02:07:51;;;;;;;7.35;5.32;;;;;;;;;;5054553;28;20036;-67
2023/05/26 02:10:18;;;;;;;6.82;5.72;;;;;;;;;;5054513;28;20035;-67
2023/05/26 02:12:44;;;;;;;7.18;5.05;;;;;;;;;;5054627;28;20025;-67
2023/05/26 02:15:11;;;;;;;9.82;5.45;;;;;;;;;;5053407;28;20466;-67
2023/05/26 02:17:37;;;;;;;10.70;5.65;;;;;;;;;;5054394;28;20025;-67
2023/05/26 02:20:03;;;;;;;8.88;5.43;;;;;;;;;;5053376;28;20039;-67
2023/05/26 02:22:30;;;;;;;8.88;5.63;;;;;;;;;;5054594;28;20082;-67
2023/05/26 02:24:57;;;;;;;6.63;5.03;;;;;;;;;;5054209;28;20037;-68
2023/05/26 02:27:23;;;;;;;6.60;5.18;;;;;;;;;;5053031;28;20048;-68
2023/05/26 02:29:49;;;;;;;6.63;5.55;;;;;;;;;;5054438;28;20020;-68
2023/05/26 02:32:16;;;;;;;7.85;5.20;;;;;;;;;;5054371;28;20047;-68
2023/05/26 02:34:42;;;;;;;8.13;5.53;;;;;;;;;;5054512;28;20023;-68
2023/05/26 02:37:08;;;;;;;11.60;5.60;;;;;;;;;;5054086;28;20021;-67
2023/05/26 02:39:35;;;;;;;7.40;6.05;;;;;;;;;;5053958;28;20025;-67
2023/05/26 02:42:01;;;;;;;12.20;6.72;;;;;;;;;;5053200;28;20055;-67
2023/05/26 02:44:28;;;;;;;7.47;6.15;;;;;;;;;;5054221;28;20017;-67
2023/05/26 02:46:54;;;;;;;6.43;5.47;;;;;;;;;;5053793;28;20032;-68
2023/05/26 02:49:20;;;;;;;7.53;5.90;;;;;;;;;;5054139;28;20029;-67
2023/05/26 02:51:47;;;;;;;7.75;6.28;;;;;;;;;;5053329;28;20032;-67
2023/05/26 02:54:13;;;;;;;13.57;6.45;;;;;;;;;;5053599;28;20017;-67
2023/05/26 02:56:40;;;;;;;12.32;5.82;;;;;;;;;;5053688;28;20029;-67
2023/05/26 02:59:06;;;;;;;9.02;6.30;;;;;;;;;;5053673;28;20025;-68
2023/05/26 03:01:32;;;;;;;7.45;6.05;;;;;;;;;;5052767;28;20017;-67
2023/05/26 03:03:59;;;;;;;8.75;5.28;;;;;;;;;;5053603;28;20500;-67
2023/05/26 03:06:25;;;;;;;6.50;5.35;;;;;;;;;;5053147;28;20481;-67
2023/05/26 03:08:51;;;;;;;7.78;5.72;;;;;;;;;;5053656;28;20031;-67
2023/05/26 03:11:17;;;;;;;8.07;5.88;;;;;;;;;;5053716;28;20036;-68
2023/05/26 03:13:44;;;;;;;6.45;5.50;;;;;;;;;;5053464;28;20017;-67
2023/05/26 03:16:12;;;;;;;9.65;5.63;;;;;;;;;;5053309;28;20474;-67
2023/05/26 03:18:38;;;;;;;12.45;6.03;;;;;;;;;;5053684;28;20028;-67
2023/05/26 03:21:06;;;;;;;16.67;6.93;;;;;;;;;;5052016;28;20021;-67
2023/05/26 03:23:36;;;;;;;8.25;6.13;;;;;;;;;;5052838;28;20433;-68
2023/05/26 03:26:02;;;;;;;6.18;5.07;;;;;;;;;;5053849;28;20025;-67
2023/05/26 03:28:28;;;;;;;6.13;5.50;;;;;;;;;;5053001;28;20098;-67
2023/05/26 03:30:56;;;;;;;8.13;5.75;;;;;;;;;;5053143;28;20389;-67
2023/05/26 03:33:22;;;;;;;9.50;5.90;;;;;;;;;;5053072;28;20029;-68
2023/05/26 03:35:48;;;;;;;9.73;5.43;;;;;;;;;;5051674;28;20017;-68
2023/05/26 03:38:14;;;;;;;7.40;5.70;;;;;;;;;;5052957;28;20393;-67
2023/05/26 03:40:41;;;;;;;13.95;5.90;;;;;;;;;;5053388;28;20031;-68
2023/05/26 03:43:07;;;;;;;7.72;6.30;;;;;;;;;;5052862;28;20413;-67
2023/05/26 03:45:33;;;;;;;9.80;6.18;;;;;;;;;;5052913;28;20117;-67
2023/05/26 03:48:00;;;;;;;7.30;5.57;;;;;;;;;;5052573;28;20503;-67
2023/05/26 03:50:26;;;;;;;11.43;6.10;;;;;;;;;;5052833;28;20033;-67
2023/05/26 03:52:53;;;;;;;12.13;6.38;;;;;;;;;;5052797;28;20028;-67
2023/05/26 03:55:20;;;;;;;10.52;5.43;;;;;;;;;;5052798;28;20025;-67
2023/05/26 03:57:46;;;;;;;6.38;5.40;;;;;;;;;;5052360;28;20021;-67
2023/05/26 04:00:13;;;;;;;19.15;6.32;;;;;;;;;;5052567;28;20029;-67
2023/05/26 04:02:40;;;;;;;9.65;5.70;;;;;;;;;;5051705;28;20490;-67
2023/05/26 04:05:07;;;;;;;7.47;5.68;;;;;;;;;;5052299;28;20024;-67
2023/05/26 04:07:33;;;;;;;8.68;5.95;;;;;;;;;;5052239;28;20497;-67
2023/05/26 04:09:59;;;;;;;8.18;5.72;;;;;;;;;;5052456;28;20024;-67
2023/05/26 04:12:26;;;;;;;9.25;5.60;;;;;;;;;;5052384;28;20404;-67
2023/05/26 04:14:52;;;;;;;11.27;6.20;;;;;;;;;;5052310;28;20375;-67
2023/05/26 04:17:18;;;;;;;6.70;5.70;;;;;;;;;;5052315;28;20025;-67
2023/05/26 04:19:45;;;;;;;11.00;5.85;;;;;;;;;;5051089;28;20028;-68
2023/05/26 04:22:12;;;;;;;9.25;6.25;;;;;;;;;;5052332;28;20023;-67
2023/05/26 04:24:38;;;;;;;9.38;5.57;;;;;;;;;;5052117;28;20506;-68
2023/05/26 04:27:07;;;;;;;5.80;5.20;;;;;;;;;;5050804;28;20057;-67
2023/05/26 04:29:34;;;;;;;6.65;5.82;;;;;;;;;;5052115;28;20019;-68
2023/05/26 04:32:00;;;;;;;10.48;5.72;;;;;;;;;;5050911;28;20017;-67
2023/05/26 04:34:28;;;;;;;9.27;5.65;;;;;;;;;;5051946;28;20039;-67
2023/05/26 04:36:54;;;;;;;7.50;5.53;;;;;;;;;;5052034;28;20021;-67
2023/05/26 04:39:21;;;;;;;7.18;5.75;;;;;;;;;;5052245;28;20031;-68
2023/05/26 04:41:47;;;;;;;7.60;5.78;;;;;;;;;;5052038;28;20524;-67
2023/05/26 04:44:13;;;;;;;6.40;5.47;;;;;;;;;;5052087;28;20039;-67
2023/05/26 04:46:40;;;;;;;8.52;5.50;;;;;;;;;;5052068;28;20021;-67
2023/05/26 04:49:09;;;;;;;9.27;5.93;;;;;;;;;;5051642;28;20397;-67
2023/05/26 04:51:36;;;;;;;7.50;5.45;;;;;;;;;;5051847;28;20396;-67
2023/05/26 04:54:02;;;;;;;7.47;5.13;;;;;;;;;;5051918;28;20025;-67
2023/05/26 04:56:29;;;;;;;8.73;5.68;;;;;;;;;;5051725;28;20070;-67
2023/05/26 04:58:56;;;;;;;8.80;6.05;;;;;;;;;;5051667;28;20017;-67
2023/05/26 05:01:22;;;;;;;6.22;5.53;;;;;;;;;;5052130;28;20025;-67
2023/05/26 05:03:48;;;;;;;8.52;5.18;;;;;;;;;;5051781;28;20025;-67
2023/05/26 05:06:15;;;;;;;8.25;5.30;;;;;;;;;;5051653;28;20029;-67
2023/05/26 05:08:41;;;;;;;11.05;5.60;;;;;;;;;;5051507;28;20044;-67
2023/05/26 05:11:07;;;;;;;11.05;5.85;;;;;;;;;;5051966;28;20033;-67
2023/05/26 05:13:34;;;;;;;10.73;5.18;;;;;;;;;;5052406;28;20517;-67
2023/05/26 05:16:01;;;;;;;12.60;5.47;;;;;;;;;;5056060;28;20024;-67
2023/05/26 05:18:27;;;;;;;7.53;6.05;;;;;;;;;;5055614;28;20146;-67
2023/05/26 05:20:54;;;;;;;8.30;5.80;;;;;;;;;;5054471;28;20040;-67
2023/05/26 05:23:20;;;;;;;10.18;5.20;;;;;;;;;;5087721;28;20057;-67
2023/05/26 05:25:46;;;;;;;7.75;5.50;;;;;;;;;;5055776;28;20044;-68
2023/05/26 05:28:13;;;;;;;6.20;5.07;;;;;;;;;;5052046;28;20029;-67
2023/05/26 05:30:39;;;;;;;10.70;5.90;;;;;;;;;;5054880;28;20021;-67
2023/05/26 05:33:05;;;;;;;10.32;6.25;;;;;;;;;;5054778;28;20033;-70
2023/05/26 05:35:32;;;;;;;10.55;5.97;;;;;;;;;;5054777;28;20021;-67
2023/05/26 05:37:58;;;;;;;7.75;4.88;;;;;;;;;;5055144;28;20029;-68
2023/05/26 05:40:25;;;;;;;7.63;4.78;;;;;;;;;;5054913;28;20025;-68
2023/05/26 05:42:51;;;;;;;8.02;5.38;;;;;;;;;;5054810;28;20021;-68
2023/05/26 05:45:17;;;;;;;9.57;5.68;;;;;;;;;;5055176;28;20021;-68
2023/05/26 05:47:43;;;;;;;10.95;5.65;;;;;;;;;;5054318;28;20029;-68
2023/05/26 05:50:10;;;;;;;7.97;5.18;;;;;;;;;;5054803;28;20031;-68
2023/05/26 05:52:36;;;;;;;8.07;5.55;;;;;;;;;;5055085;28;20027;-68
2023/05/26 05:55:02;;;;;;;8.40;5.22;;;;;;;;;;5054594;28;20028;-68
2023/05/26 05:57:29;;;;;;;6.60;4.57;;;;;;;;;;5054295;28;20041;-67
2023/05/26 05:59:55;;;;;;;8.93;5.30;;;;;;;;;;5054054;28;20032;-68
2023/05/26 06:02:21;;;;;;;8.45;5.07;;;;;;;;;;5054244;28;20029;-67
2023/05/26 06:04:48;;;;;;;10.32;5.15;;;;;;;;;;5054575;28;20020;-67
2023/05/26 06:07:14;;;;;;;6.32;4.90;;;;;;;;;;5054346;28;20507;-67
2023/05/26 06:09:40;;;;;;;8.65;5.28;;;;;;;;;;5054526;28;20021;-67
2023/05/26 06:12:07;;;;;;;14.73;5.82;;;;;;;;;;5054451;28;20036;-68
2023/05/26 06:14:33;;;;;;;9.68;4.90;;;;;;;;;;5054660;28;20021;-67
2023/05/26 06:17:00;;;;;;;14.07;5.78;;;;;;;;;;5052979;28;20025;-67
2023/05/26 06:19:26;;;;;;;12.95;5.18;;;;;;;;;;5054428;28;20029;-67
2023/05/26 06:21:52;;;;;;;7.43;4.80;;;;;;;;;;5054383;28;20020;-68
2023/05/26 06:24:18;;;;;;;8.27;4.95;;;;;;;;;;5052834;28;20056;-70
2023/05/26 06:26:45;;;;;;;8.98;4.38;;;;;;;;;;5053538;28;20024;-67
2023/05/26 06:29:11;;;;;;;5.43;3.92;;;;;;;;;;5054220;28;20375;-68
2023/05/26 06:31:38;;;;;;;12.10;4.78;;;;;;;;;;5051665;28;20029;-68
2023/05/26 06:34:04;;;;;;;9.07;4.25;;;;;;;;;;5046140;28;20047;-68
2023/05/26 06:36:31;;;;;;;9.13;4.88;;;;;;;;;;5043199;28;20029;-67
2023/05/26 06:38:57;;;;;;;6.65;4.82;;;;;;;;;;5035750;28;20112;-68
2023/05/26 06:41:23;;;;;;;9.73;4.47;;;;;;;;;;5046237;28;20031;-68
2023/05/26 06:43:50;;;;;;;7.32;4.57;;;;;;;;;;5047171;28;20051;-68
2023/05/26 06:46:16;;;;;;;9.60;4.53;;;;;;;;;;5053774;28;20033;-67
2023/05/26 06:48:42;;;;;;;9.10;4.30;;;;;;;;;;5050431;28;20044;-69
2023/05/26 06:51:08;;;;;;;7.35;3.83;;;;;;;;;;5045040;28;20018;-68
2023/05/26 06:53:37;;;;;;;13.98;4.30;;;;;;;;;;5033987;28;20021;-68
2023/05/26 06:56:04;;;;;;;8.25;3.63;;;;;;;;;;5082628;28;20025;-68
2023/05/26 06:58:30;;;;;;;8.60;3.85;;;;;;;;;;5053590;28;20025;-67
2023/05/26 07:00:59;;;;;;;5.10;3.78;;;;;;;;;;5053409;28;20033;-67
2023/05/26 07:03:29;;;;;;;11.32;3.72;;;;;;;;;;5053988;28;20021;-67
2023/05/26 07:05:55;;;;;;;11.88;3.70;;;;;;;;;;5053638;28;20392;-68
2023/05/26 07:08:21;;;;;;;8.07;3.63;;;;;;;;;;5053534;28;20033;-68
2023/05/26 07:10:48;;;;;;;5.53;3.58;;;;;;;;;;5053544;28;20017;-67
2023/05/26 07:13:14;;;;;;;6.15;3.92;;;;;;;;;;5053563;28;20043;-68
2023/05/26 07:15:41;;;;;;;4.35;3.75;;;;;;;;;;5053445;28;20031;-68
2023/05/26 07:18:08;;;;;;;8.65;3.70;;;;;;;;;;5053177;28;20017;-68
2023/05/26 07:20:34;;;;;;;6.95;3.75;;;;;;;;;;5052555;28;20489;-68
2023/05/26 07:23:01;;;;;;;7.90;3.53;;;;;;;;;;5052751;28;20059;-68
2023/05/26 07:25:28;;;;;;;7.22;3.63;;;;;;;;;;5052059;28;20036;-68
2023/05/26 07:27:54;;;;;;;7.75;4.00;;;;;;;;;;5051835;28;20047;-68
2023/05/26 07:30:20;;;;;;;6.80;3.75;;;;;;;;;;5052120;28;20567;-68
2023/05/26 07:32:47;;;;;;;7.82;3.95;;;;;;;;;;5052029;28;20029;-69
2023/05/26 07:35:13;;;;;;;5.13;3.67;;;;;;;;;;5052135;28;20029;-68
2023/05/26 07:37:40;;;;;;;5.90;3.58;;;;;;;;;;5051812;28;20032;-68
2023/05/26 07:40:06;;;;;;;4.63;3.13;;;;;;;;;;5052104;28;20021;-68
2023/05/26 07:42:33;;;;;;;5.65;3.55;;;;;;;;;;5051855;28;20033;-68
2023/05/26 07:45:01;;;;;;;9.40;3.25;;;;;;;;;;5051830;28;20017;-68
2023/05/26 07:47:31;;;;;;;4.53;3.25;;;;;;;;;;5051573;28;20509;-68
2023/05/26 07:50:00;;;;;;;5.20;3.08;;;;;;;;;;5051737;28;20028;-68
2023/05/26 07:52:27;;;;;;;5.78;3.20;;;;;;;;;;5051794;28;20051;-68
2023/05/26 07:54:53;;;;;;;8.23;3.47;;;;;;;;;;5051770;28;20025;-68
2023/05/26 07:57:19;;;;;;;4.57;3.17;;;;;;;;;;5051383;28;20009;-68
2023/05/26 07:59:46;;;;;;;7.63;3.30;;;;;;;;;;5051248;28;20032;-68
2023/05/26 08:02:12;;;;;;;7.07;3.13;;;;;;;;;;5051412;28;20392;-69
2023/05/26 08:04:39;;;;;;;3.20;2.75;;;;;;;;;;5051627;28;20033;-69
2023/05/26 08:07:05;;;;;;;5.63;3.10;;;;;;;;;;5051084;28;20043;-68
2023/05/26 08:09:32;;;;;;;5.15;3.00;;;;;;;;;;5051344;28;20035;-68
2023/05/26 08:11:58;;;;;;;4.43;3.15;;;;;;;;;;5051202;28;20396;-68
2023/05/26 08:14:26;;;;;;;11.95;3.45;;;;;;;;;;5051513;28;20029;-68
2023/05/26 08:16:52;;;;;;;8.80;3.05;;;;;;;;;;5051465;28;20025;-69
2023/05/26 08:19:18;;;;;;;10.07;3.20;;;;;;;;;;5051317;28;20403;-68
2023/05/26 08:21:45;;;;;;;10.50;3.30;;;;;;;;;;5051034;28;20035;-69
2023/05/26 08:24:11;;;;;;;5.75;2.80;;;;;;;;;;5051039;28;20036;-69
2023/05/26 08:26:37;;;;;;;5.68;3.30;;;;;;;;;;5050759;28;20399;-68
2023/05/26 08:29:06;;;;;;;6.55;2.90;;;;;;;;;;5051001;28;20033;-68
2023/05/26 08:31:32;;;;;;;5.32;3.13;;;;;;;;;;5050888;28;20548;-69
2023/05/26 08:33:58;;;;;;;9.50;3.13;;;;;;;;;;5051518;28;20033;-68
2023/05/26 08:36:25;;;;;;;6.75;3.10;;;;;;;;;;5050861;28;20534;-68
2023/05/26 08:38:51;;;;;;;8.55;3.30;;;;;;;;;;5050852;28;20037;-68
2023/05/26 08:41:20;;;;;;;8.88;3.05;;;;;;;;;;5050334;28;20492;-68
2023/05/26 08:43:51;;;;;;;5.00;2.90;;;;;;;;;;5051117;28;20029;-68
2023/05/26 08:46:17;;;;;;;6.63;2.97;;;;;;;;;;5050646;28;20507;-69
2023/05/26 08:48:45;;;;;;;10.25;2.80;;;;;;;;;;5050255;28;20378;-69
2023/05/26 08:51:11;;;;;;;9.98;3.25;;;;;;;;;;5050859;28;20027;-69
2023/05/26 08:53:39;;;;;;;6.75;3.35;;;;;;;;;;5051142;28;20029;-69
2023/05/26 08:56:07;;;;;;;7.38;3.00;;;;;;;;;;5050548;28;20024;-69
2023/05/26 08:58:33;;;;;;;12.13;3.13;;;;;;;;;;5050740;28;20021;-70
2023/05/26 09:01:01;;;;;;;7.22;2.70;;;;;;;;;;5049862;28;20033;-69
2023/05/26 09:03:27;;;;;;;5.72;2.65;;;;;;;;;;5050895;28;20025;-70
2023/05/26 09:05:54;;;;;;;7.38;2.90;;;;;;;;;;5050825;28;20025;-69
2023/05/26 09:08:20;;;;;;;6.65;2.90;;;;;;;;;;5050615;28;20388;-69
2023/05/26 09:10:46;;;;;;;6.80;2.90;;;;;;;;;;5050798;28;20032;-69
2023/05/26 09:13:13;;;;;;;7.22;2.72;;;;;;;;;;5050797;28;20021;-69
2023/05/26 09:15:40;;;;;;;8.18;2.60;;;;;;;;;;5050453;28;20021;-70
2023/05/26 09:18:08;;;;;;;7.63;2.85;;;;;;;;;;5050517;28;20067;-70
2023/05/26 09:20:39;;;;;;;8.90;2.70;;;;;;;;;;5050723;28;20021;-69
2023/05/26 09:23:05;;;;;;;6.25;2.85;;;;;;;;;;5050517;28;20119;-69
2023/05/26 09:25:40;;;;;;;5.18;2.65;;;;;;;;;;5050298;28;20044;-70
2023/05/26 09:28:08;;;;;;;5.78;2.38;;;;;;;;;;5050461;28;20029;-69
2023/05/26 09:30:38;;;;;;;4.25;2.50;;;;;;;;;;5050549;28;20035;-69
2023/05/26 09:33:05;;;;;;;7.80;2.90;;;;;;;;;;5050564;28;20029;-69
2023/05/26 09:35:35;;;;;;;9.00;3.17;;;;;;;;;;5050565;28;20029;-69
2023/05/26 09:38:03;;;;;;;6.35;2.97;;;;;;;;;;5050289;28;20432;-70
2023/05/26 09:40:29;;;;;;;4.13;2.35;;;;;;;;;;5050300;28;20023;-70
2023/05/26 09:42:56;;;;;;;9.15;2.70;;;;;;;;;;5050461;28;20025;-69
2023/05/26 09:45:23;;;;;;;4.97;2.67;;;;;;;;;;5050110;28;20039;-70
2023/05/26 09:47:59;;;;;;;5.32;2.53;;;;;;;;;;5050422;28;20039;-70
2023/05/26 09:50:26;;;;;;;11.20;2.60;;;;;;;;;;5050594;28;20059;-69
2023/05/26 09:52:52;;;;;;;3.83;2.10;;;;;;;;;;5050121;28;20031;-70
2023/05/26 09:55:18;;;;;;;5.88;2.67;;;;;;;;;;5050438;28;20025;-70
2023/05/26 09:57:48;;;;;;;4.15;2.40;;;;;;;;;;5049983;28;20397;-70
2023/05/26 10:00:14;;;;;;;4.97;2.45;;;;;;;;;;5050353;28;20535;-69
2023/05/26 10:02:42;;;;;;;6.07;2.30;;;;;;;;;;5053793;28;20029;-69
2023/05/26 10:05:08;;;;;;;5.20;2.67;;;;;;;;;;5054029;28;20441;-69
2023/05/26 10:07:35;;;;;;;5.90;2.67;;;;;;;;;;5053623;28;20020;-70
2023/05/26 10:10:02;;;;;;;7.45;2.70;;;;;;;;;;5053851;28;20029;-68
2023/05/26 10:12:32;;;;;;;7.78;2.65;;;;;;;;;;5053607;28;20025;-67
2023/05/26 10:14:58;;;;;;;5.25;2.50;;;;;;;;;;5053450;28;20477;-68
2023/05/26 10:17:25;;;;;;;4.60;2.50;;;;;;;;;;5053266;28;20045;-69
2023/05/26 10:19:52;;;;;;;4.57;2.28;;;;;;;;;;5053661;28;20021;-69
2023/05/26 10:22:21;;;;;;;8.25;2.45;;;;;;;;;;5053063;28;20025;-69
2023/05/26 10:24:54;;;;;;;3.95;2.63;;;;;;;;;;5053608;28;20037;-69
2023/05/26 10:27:24;;;;;;;5.97;2.42;;;;;;;;;;5053669;28;20024;-69
2023/05/26 10:30:00;;;;;;;6.45;2.22;;;;;;;;;;5053272;28;20025;-69
2023/05/26 10:32:56;;;;;;;4.45;2.13;;;;;;;;;;5053202;28;20036;-69
2023/05/26 10:35:28;;;;;;;6.72;2.67;;;;;;;;;;5052582;28;20045;-69
2023/05/26 10:38:11;;;;;;;5.60;2.58;;;;;;;;;;5052855;28;20425;-69
2023/05/26 10:40:40;;;;;;;6.68;2.67;;;;;;;;;;5053603;28;20025;-69
2023/05/26 10:43:12;;;;;;;9.02;2.47;;;;;;;;;;5053436;28;20021;-69
2023/05/26 10:45:46;;;;;;;8.35;2.78;;;;;;;;;;5051435;28;20025;-69
2023/05/26 10:48:12;;;;;;;5.57;2.03;;;;;;;;;;5052863;28;20037;-69
2023/05/26 10:51:00;;;;;;;8.90;2.50;;;;;;;;;;5053192;28;20021;-69
2023/05/26 10:53:36;;;;;;;4.63;2.58;;;;;;;;;;5052542;28;20054;-69
2023/05/26 10:56:04;;;;;;;7.82;2.65;;;;;;;;;;5052698;28;20032;-69
2023/05/26 10:58:34;;;;;;;14.95;2.75;;;;;;;;;;5052701;28;20033;-69
2023/05/26 11:01:01;;;;;;;5.55;2.17;;;;;;;;;;5052611;28;20029;-69
2023/05/26 11:03:35;;;;;;;7.70;2.60;;;;;;;;;;5051355;28;20031;-69
2023/05/26 11:06:01;;;;;;;6.90;2.50;;;;;;;;;;5052039;28;20013;-69
2023/05/26 11:08:33;;;;;;;6.60;2.40;;;;;;;;;;5052470;28;20029;-69
2023/05/26 11:11:03;;;;;;;7.13;2.15;;;;;;;;;;5052325;28;20453;-69
2023/05/26 11:13:45;;;;;;;5.53;2.10;;;;;;;;;;5052293;28;20029;-68
2023/05/26 11:16:12;;;;;;;8.77;2.50;;;;;;;;;;5052118;28;20021;-69
2023/05/26 11:18:40;;;;;;;5.97;2.47;;;;;;;;;;5052317;28;20043;-69
2023/05/26 11:21:07;;;;;;;6.78;2.53;;;;;;;;;;5052649;28;20025;-69
2023/05/26 11:23:33;;;;;;;4.45;2.30;;;;;;;;;;5052971;28;20455;-69
2023/05/26 11:25:59;;;;;;;8.57;3.05;;;;;;;;;;5048701;28;20042;-69
2023/05/26 11:28:26;;;;;;;7.43;2.47;;;;;;;;;;5055420;28;20039;-69
2023/05/26 11:30:52;;;;;;;7.05;2.40;;;;;;;;;;5052101;28;20024;-69
2023/05/26 11:33:18;;;;;;;6.95;2.50;;;;;;;;;;5052355;28;20029;-69
2023/05/26 11:35:45;;;;;;;8.40;2.50;;;;;;;;;;5051659;28;20040;-69
2023/05/26 11:38:11;;;;;;;8.85;2.45;;;;;;;;;;5051827;28;20037;-69
2023/05/26 11:40:37;;;;;;;8.15;2.72;;;;;;;;;;5051955;28;20500;-69
2023/05/26 11:43:04;;;;;;;7.55;2.17;;;;;;;;;;5051889;28;20021;-69
2023/05/26 11:45:30;;;;;;;5.18;2.53;;;;;;;;;;5051498;28;20017;-69
2023/05/26 11:47:56;;;;;;;7.70;2.55;;;;;;;;;;5051839;28;20020;-68
2023/05/26 11:50:23;;;;;;;5.68;2.40;;;;;;;;;;5050191;28;20060;-68
2023/05/26 11:52:50;;;;;;;4.70;2.28;;;;;;;;;;5051595;28;20036;-69
2023/05/26 11:55:20;;;;;;;7.03;3.25;;;;;;;;;;5051504;28;20021;-68
2023/05/26 11:57:47;;;;;;;4.82;2.42;;;;;;;;;;5051187;28;20082;-69
2023/05/26 12:00:14;;;;;;;5.40;1.92;;;;;;;;;;5050328;28;20033;-69
2023/05/26 12:02:40;;;;;;;10.40;2.30;;;;;;;;;;5051921;28;20035;-69
2023/05/26 12:05:29;;;;;;;14.30;2.85;;;;;;;;;;5051187;28;20586;-69
2023/05/26 12:08:13;;;;;;;7.50;2.40;;;;;;;;;;5051386;28;20099;-69
2023/05/26 12:10:43;;;;;;;6.40;2.33;;;;;;;;;;5051441;28;20021;-68
2023/05/26 12:13:09;;;;;;;7.22;2.53;;;;;;;;;;5051398;28;20481;-68
2023/05/26 12:15:36;;;;;;;10.13;2.40;;;;;;;;;;5051329;28;20029;-68
2023/05/26 12:18:02;;;;;;;7.05;2.40;;;;;;;;;;5051191;28;20416;-67
2023/05/26 12:20:29;;;;;;;8.48;2.35;;;;;;;;;;5049912;28;20029;-68
2023/05/26 12:23:02;;;;;;;8.27;2.47;;;;;;;;;;5050435;28;20053;-68
2023/05/26 12:25:29;;;;;;;6.25;2.40;;;;;;;;;;5051181;28;20027;-68
2023/05/26 12:27:56;;;;;;;5.97;2.45;;;;;;;;;;5049182;28;20020;-68
2023/05/26 12:30:26;;;;;;;6.25;2.60;;;;;;;;;;5051357;28;20028;-68
2023/05/26 12:32:53;;;;;;;7.15;2.28;;;;;;;;;;5050847;28;20027;-68
2023/05/26 12:35:19;;;;;;;11.40;2.38;;;;;;;;;;5051194;28;20029;-67
2023/05/26 12:37:46;;;;;;;11.23;2.60;;;;;;;;;;5050981;28;20086;-68
2023/05/26 12:40:13;;;;;;;6.38;2.78;;;;;;;;;;5049625;28;20047;-68
2023/05/26 12:42:40;;;;;;;5.28;2.67;;;;;;;;;;5050991;28;20017;-68
2023/05/26 12:45:07;;;;;;;7.97;2.70;;;;;;;;;;5050864;28;20043;-68
2023/05/26 12:47:34;;;;;;;8.25;2.42;;;;;;;;;;5050567;28;20024;-68
2023/05/26 12:50:01;;;;;;;7.97;2.63;;;;;;;;;;5050732;28;20412;-68
2023/05/26 12:52:27;;;;;;;7.40;2.60;;;;;;;;;;5050582;28;20029;-68
2023/05/26 12:54:53;;;;;;;8.80;2.78;;;;;;;;;;5050703;28;20493;-68
2023/05/26 12:57:20;;;;;;;11.73;2.60;;;;;;;;;;5050535;28;20591;-69
2023/05/26 12:59:46;;;;;;;8.20;2.55;;;;;;;;;;5049363;28;20027;-68
2023/05/26 13:02:13;;;;;;;7.63;2.45;;;;;;;;;;5050367;28;20032;-68
2023/05/26 13:04:40;;;;;;;4.45;2.53;;;;;;;;;;5050694;28;20082;-68
2023/05/26 13:07:08;;;;;;;9.70;2.63;;;;;;;;;;5050544;28;20029;-68
2023/05/26 13:09:34;;;;;;;8.23;2.13;;;;;;;;;;5050380;28;20019;-68
2023/05/26 13:12:01;;;;;;;8.43;2.83;;;;;;;;;;5050798;28;20021;-68
2023/05/26 13:14:28;;;;;;;5.70;2.40;;;;;;;;;;5049395;28;20037;-68
2023/05/26 13:16:54;;;;;;;8.05;1.98;;;;;;;;;;5050188;28;20389;-68
2023/05/26 13:19:20;;;;;;;8.48;2.40;;;;;;;;;;5050662;28;20028;-68
2023/05/26 13:21:47;;;;;;;5.82;2.33;;;;;;;;;;5050336;28;20477;-68
2023/05/26 13:24:13;;;;;;;6.72;2.30;;;;;;;;;;5050392;28;20491;-68
2023/05/26 13:26:40;;;;;;;5.82;2.38;;;;;;;;;;5050149;28;20028;-67
2023/05/26 13:29:09;;;;;;;7.15;2.58;;;;;;;;;;5050514;28;20029;-67
2023/05/26 13:31:35;;;;;;;6.05;2.60;;;;;;;;;;5050291;28;20031;-68
2023/05/26 13:34:01;;;;;;;8.02;2.53;;;;;;;;;;5049229;28;20017;-68
2023/05/26 13:36:28;;;;;;;6.75;2.30;;;;;;;;;;5054468;28;20029;-68
2023/05/26 13:38:54;;;;;;;12.88;2.58;;;;;;;;;;5054073;28;20032;-68
2023/05/26 13:41:20;;;;;;;5.57;2.50;;;;;;;;;;5054395;28;20025;-68
2023/05/26 13:43:47;;;;;;;7.72;2.65;;;;;;;;;;5053936;28;20033;-67
2023/05/26 13:46:13;;;;;;;7.10;2.85;;;;;;;;;;5053472;28;20029;-68
2023/05/26 13:48:40;;;;;;;4.65;2.35;;;;;;;;;;5053820;28;20029;-68
2023/05/26 13:51:06;;;;;;;9.95;2.40;;;;;;;;;;5054124;28;20021;-68
2023/05/26 13:53:33;;;;;;;8.23;2.33;;;;;;;;;;5052495;28;20370;-68
2023/05/26 13:55:59;;;;;;;7.10;3.03;;;;;;;;;;5053650;28;20036;-67
2023/05/26 13:58:26;;;;;;;8.38;2.53;;;;;;;;;;5053529;28;20037;-67
2023/05/26 14:00:52;;;;;;;7.53;2.50;;;;;;;;;;5053467;28;20403;-67
2023/05/26 14:03:18;;;;;;;5.10;2.33;;;;;;;;;;5053745;28;20035;-68
2023/05/26 14:05:45;;;;;;;4.60;2.20;;;;;;;;;;5053420;28;20020;-68
2023/05/26 14:08:11;;;;;;;7.60;2.55;;;;;;;;;;5053134;28;20100;-68
2023/05/26 14:10:37;;;;;;;7.40;2.53;;;;;;;;;;5053887;28;20019;-67
2023/05/26 14:13:04;;;;;;;5.43;2.22;;;;;;;;;;5053394;28;20029;-67
2023/05/26 14:15:31;;;;;;;5.97;2.58;;;;;;;;;;5053162;28;20050;-68
2023/05/26 14:17:58;;;;;;;7.50;2.38;;;;;;;;;;5053391;28;20932;-67
2023/05/26 14:20:25;;;;;;;8.25;2.40;;;;;;;;;;5053326;28;20031;-67
2023/05/26 14:22:51;;;;;;;9.35;2.60;;;;;;;;;;5053395;28;20041;-67
2023/05/26 14:25:17;;;;;;;6.88;2.47;;;;;;;;;;5053387;28;20497;-67
2023/05/26 14:27:44;;;;;;;9.35;2.40;;;;;;;;;;5053225;28;20035;-67
2023/05/26 14:30:11;;;;;;;11.70;3.08;;;;;;;;;;5052974;28;20010;-67
2023/05/26 14:32:37;;;;;;;11.07;2.63;;;;;;;;;;5053360;28;20029;-67
2023/05/26 14:35:04;;;;;;;7.43;2.35;;;;;;;;;;5052803;28;20029;-68
2023/05/26 14:37:30;;;;;;;9.63;2.58;;;;;;;;;;5053031;28;20076;-70
2023/05/26 14:39:56;;;;;;;7.15;2.42;;;;;;;;;;5053218;28;20474;-67
2023/05/26 14:42:24;;;;;;;8.07;2.95;;;;;;;;;;5052277;28;20025;-68